Hauptseite
METAR-TAF:

METAR-TAF

Flughäfen :

Flughafen Dortmund

Dortmund, Deutschland

Breite: 51-31N, Länge: 007-37E, Höhe: 127 m

Beobachtung

Neuester Wetterbericht von vor 28 Minuten, um 04:20 UTC
Wind 5 kt aus Süd/Südost
Temperatur 4°C
Luftfeuchtigkeit 87%
Luftdruck 1025 hPa
Sichtweite 10 km oder mehr
keine Wolken unter 1500 m und keine Kumulonimbus oder Gewitterwolken

METAR: EDLW 150420Z 16005KT CAVOK 04/02 Q1025

Zeit: 05:48 (04:48 UTC)

Prognose

Neuester Wetterbericht von vor 11 Stunden und 48 Minuten, um 17:00 UTC
Gültige Prognose vom 14 um 18 UTC bis 15 um 18 UTC
Wind 7 kt aus Süd/Südost
Sichtweite 10 km oder mehr
keine Wolken unter 1500 m und keine Kumulonimbus oder Gewitterwolken

TAF: EDLW 141700Z 1418/1518 15007KT CAVOK

Wetterbeobachtungen und Prognosen von mehr als 4000 Flughäfen (METAR und TAF Bericht).

Die verfügbaren Stationen werden durch gelbe und rote Markierungen auf der Karte dargestellt.

Führen Sie die Maus auf sie, um den Namen der Station zu sehen.

Darauf klicken, um die Beobachtung von Wetterbeobachtungen und Prognosen zu sehen.

Um die Karte zu ändern : klicken Sie auf den grünen Tasten mit einem schwarzen Kreuz Zum Vergrößern, auf den grünen Button mit einem Gedankenstrich zu verkleinern, oder auf die grünen Pfeile für benachbarte Karten.


METAR-TAF: